Time;durP1;ratioP1;P1;durP2;ratioP2;P2;SDS_P1;SDS_P2;PMS_P1;PMS_P2;Temp;Humidity;BMP_temperature;BMP_pressure;BME280_temperature;BME280_humidity;BME280_pressure;Samples;Min_cycle;Max_cycle;Signal;HPM_P1;HPM_P2
2023/04/17 00:00:49;;;;;;;43.05;17.83;;;;;;;;;;8399775;28;20087;-86
2023/04/17 00:04:59;;;;;;;39.80;17.77;;;;;;;;;;8398236;28;20045;-87
2023/04/17 00:09:05;;;;;;;41.55;17.63;;;;;;;;;;8398121;28;20135;-86
2023/04/17 00:13:13;;;;;;;39.97;18.33;;;;;;;;;;8380503;28;20052;-87
2023/04/17 00:17:18;;;;;;;40.45;16.73;;;;;;;;;;8399601;28;20062;-86
2023/04/17 00:21:21;;;;;;;38.72;18.05;;;;;;;;;;8398606;28;20044;-87
2023/04/17 00:25:24;;;;;;;35.35;16.75;;;;;;;;;;8398966;28;20079;-86
2023/04/17 00:29:31;;;;;;;26.35;14.60;;;;;;;;;;8395418;28;20055;-87
2023/04/17 00:33:34;;;;;;;32.90;18.52;;;;;;;;;;8392395;28;20056;-86
2023/04/17 00:37:37;;;;;;;34.30;18.00;;;;;;;;;;8389691;28;20048;-86
2023/04/17 00:41:40;;;;;;;36.92;18.25;;;;;;;;;;8408187;28;20029;-86
2023/04/17 00:45:46;;;;;;;38.85;19.42;;;;;;;;;;8397414;28;20179;-86
2023/04/17 00:49:50;;;;;;;39.20;18.88;;;;;;;;;;8395731;28;20515;-86
2023/04/17 00:53:53;;;;;;;31.45;16.80;;;;;;;;;;8389352;28;20041;-87
2023/04/17 00:57:56;;;;;;;33.08;17.45;;;;;;;;;;8396031;28;20075;-87
2023/04/17 01:02:00;;;;;;;35.38;17.90;;;;;;;;;;8397094;28;20508;-85
2023/04/17 01:06:03;;;;;;;33.40;16.88;;;;;;;;;;8390326;28;20127;-86
2023/04/17 01:10:08;;;;;;;36.70;17.73;;;;;;;;;;8394815;28;20482;-87
2023/04/17 01:14:11;;;;;;;30.77;16.15;;;;;;;;;;8402886;28;20040;-86
2023/04/17 01:18:15;;;;;;;29.50;15.25;;;;;;;;;;8389335;28;20040;-86
2023/04/17 01:22:19;;;;;;;29.25;16.60;;;;;;;;;;8397478;28;20468;-86
2023/04/17 01:26:24;;;;;;;31.90;16.33;;;;;;;;;;8392999;28;20079;-85
2023/04/17 01:30:27;;;;;;;30.85;15.05;;;;;;;;;;8396482;28;20063;-86
2023/04/17 01:34:30;;;;;;;30.35;16.25;;;;;;;;;;8392780;28;20427;-85
2023/04/17 01:38:33;;;;;;;28.10;13.90;;;;;;;;;;8390028;28;20041;-85
2023/04/17 01:42:37;;;;;;;28.08;15.25;;;;;;;;;;8391042;28;20044;-85
2023/04/17 01:46:40;;;;;;;28.98;15.13;;;;;;;;;;8396084;28;20036;-85
2023/04/17 01:50:43;;;;;;;30.00;15.23;;;;;;;;;;8394654;28;20138;-85
2023/04/17 01:54:46;;;;;;;27.75;14.93;;;;;;;;;;8393045;28;20052;-87
2023/04/17 01:58:50;;;;;;;29.80;15.57;;;;;;;;;;8391865;28;20040;-85
2023/04/17 02:02:53;;;;;;;26.73;13.82;;;;;;;;;;8383657;28;20040;-86
2023/04/17 02:06:56;;;;;;;29.17;14.85;;;;;;;;;;8390949;28;20094;-87
2023/04/17 02:10:59;;;;;;;31.55;14.75;;;;;;;;;;8393453;28;20040;-86
2023/04/17 02:15:03;;;;;;;27.52;15.05;;;;;;;;;;8385645;28;20127;-86
2023/04/17 02:19:06;;;;;;;27.02;14.40;;;;;;;;;;8396054;28;20051;-85
2023/04/17 02:23:09;;;;;;;31.77;14.90;;;;;;;;;;8385301;28;20594;-86
2023/04/17 02:27:12;;;;;;;23.48;12.20;;;;;;;;;;8391518;28;20369;-85
2023/04/17 02:31:16;;;;;;;33.13;14.07;;;;;;;;;;8394901;28;20078;-85
2023/04/17 02:35:19;;;;;;;24.65;11.93;;;;;;;;;;8394733;28;20045;-86
2023/04/17 02:39:22;;;;;;;28.48;14.15;;;;;;;;;;8394913;28;20044;-86
2023/04/17 02:43:25;;;;;;;24.85;13.00;;;;;;;;;;8394581;28;20044;-87
2023/04/17 02:47:29;;;;;;;45.33;22.58;;;;;;;;;;8397531;28;20044;-86
2023/04/17 02:51:32;;;;;;;50.70;21.55;;;;;;;;;;8396911;28;20051;-85
2023/04/17 02:55:35;;;;;;;35.40;17.10;;;;;;;;;;8394707;28;20044;-85
2023/04/17 02:59:38;;;;;;;50.90;22.85;;;;;;;;;;8394940;28;20483;-85
2023/04/17 03:03:43;;;;;;;29.45;15.23;;;;;;;;;;8384957;28;20037;-85
2023/04/17 03:07:46;;;;;;;32.10;15.70;;;;;;;;;;8392237;28;20089;-85
2023/04/17 03:11:49;;;;;;;41.50;17.60;;;;;;;;;;8394597;28;20044;-87
2023/04/17 03:15:52;;;;;;;35.35;15.38;;;;;;;;;;8394325;28;20406;-86
2023/04/17 03:19:56;;;;;;;48.95;19.60;;;;;;;;;;8407029;28;20052;-85
2023/04/17 03:23:59;;;;;;;54.38;23.20;;;;;;;;;;8394192;28;20422;-86
2023/04/17 03:28:02;;;;;;;73.00;24.02;;;;;;;;;;8393412;28;20049;-85
2023/04/17 03:32:05;;;;;;;50.58;19.52;;;;;;;;;;8393517;28;20060;-85
2023/04/17 03:36:10;;;;;;;58.90;24.52;;;;;;;;;;8394258;28;20466;-85
2023/04/17 03:40:13;;;;;;;48.15;19.30;;;;;;;;;;8393794;28;20668;-87
2023/04/17 03:44:17;;;;;;;62.42;24.10;;;;;;;;;;8389631;28;20071;-87
2023/04/17 03:48:20;;;;;;;64.88;26.67;;;;;;;;;;8394645;28;20048;-87
2023/04/17 03:52:25;;;;;;;83.25;30.02;;;;;;;;;;8399007;28;20040;-87
2023/04/17 03:56:28;;;;;;;94.28;21.15;;;;;;;;;;8399649;28;20070;-87
2023/04/17 04:00:33;;;;;;;90.72;21.20;;;;;;;;;;8399450;28;20052;-86
2023/04/17 04:04:37;;;;;;;62.28;21.55;;;;;;;;;;8381978;28;20078;-86
2023/04/17 04:08:41;;;;;;;92.13;24.15;;;;;;;;;;8399762;28;20105;-86
2023/04/17 04:12:44;;;;;;;110.18;25.52;;;;;;;;;;8398665;28;20047;-84
2023/04/17 04:16:47;;;;;;;71.43;24.77;;;;;;;;;;8398845;28;20123;-87
2023/04/17 04:20:49;;;;;;;99.82;30.25;;;;;;;;;;8398444;28;20048;-87
2023/04/17 04:24:54;;;;;;;85.57;27.00;;;;;;;;;;8404913;28;20044;-87
2023/04/17 04:28:58;;;;;;;126.20;29.83;;;;;;;;;;8398745;28;20098;-86
2023/04/17 04:33:04;;;;;;;86.07;26.35;;;;;;;;;;8397686;28;20052;-86
2023/04/17 04:37:07;;;;;;;83.53;27.33;;;;;;;;;;8396909;28;20064;-86
2023/04/17 04:41:12;;;;;;;90.53;35.97;;;;;;;;;;8398033;28;20045;-86
2023/04/17 04:45:15;;;;;;;89.45;32.20;;;;;;;;;;8385692;28;20095;-87
2023/04/17 04:49:18;;;;;;;76.88;33.42;;;;;;;;;;8397186;28;20040;-86
2023/04/17 04:53:21;;;;;;;63.30;31.52;;;;;;;;;;8397540;28;20124;-87
2023/04/17 04:57:25;;;;;;;43.47;22.55;;;;;;;;;;8399823;28;20044;-86
2023/04/17 05:01:28;;;;;;;51.97;26.05;;;;;;;;;;8402215;28;20048;-86
2023/04/17 05:05:31;;;;;;;63.67;33.30;;;;;;;;;;8397115;28;20123;-88
2023/04/17 05:09:35;;;;;;;89.25;46.03;;;;;;;;;;8396745;28;20089;-87
2023/04/17 05:13:40;;;;;;;51.00;28.75;;;;;;;;;;8411004;28;20138;-86
2023/04/17 05:17:43;;;;;;;52.38;26.10;;;;;;;;;;8403948;28;20051;-87
2023/04/17 05:21:46;;;;;;;47.53;26.38;;;;;;;;;;8397428;28;20090;-86
2023/04/17 05:25:49;;;;;;;46.75;26.08;;;;;;;;;;8397271;28;20052;-87
2023/04/17 05:29:53;;;;;;;52.70;25.50;;;;;;;;;;8409748;28;20480;-87
2023/04/17 05:33:57;;;;;;;42.00;22.85;;;;;;;;;;8393932;28;20052;-88
2023/04/17 05:37:59;;;;;;;63.50;31.25;;;;;;;;;;8396059;28;20102;-88
2023/04/17 05:42:02;;;;;;;67.82;30.60;;;;;;;;;;8395905;28;20090;-87
2023/04/17 05:46:07;;;;;;;46.35;23.35;;;;;;;;;;8395461;28;20405;-87
2023/04/17 05:50:10;;;;;;;54.08;24.23;;;;;;;;;;8406091;28;20040;-87
2023/04/17 05:54:13;;;;;;;28.63;15.35;;;;;;;;;;8395401;28;20040;-88
2023/04/17 05:58:16;;;;;;;28.02;16.42;;;;;;;;;;8392956;28;20543;-88
2023/04/17 06:02:20;;;;;;;32.72;16.42;;;;;;;;;;8386804;28;20048;-87
2023/04/17 06:06:24;;;;;;;27.42;14.98;;;;;;;;;;8375737;28;20052;-87
2023/04/17 06:10:27;;;;;;;22.42;11.88;;;;;;;;;;8393083;28;20454;-89
2023/04/17 06:14:30;;;;;;;20.48;10.65;;;;;;;;;;8392274;28;20051;-89
2023/04/17 06:18:34;;;;;;;20.48;11.32;;;;;;;;;;8379659;28;20045;-87
2023/04/17 06:22:37;;;;;;;22.80;12.50;;;;;;;;;;8385620;28;20044;-86
2023/04/17 06:26:40;;;;;;;19.83;10.10;;;;;;;;;;8394805;28;20048;-86
2023/04/17 06:30:43;;;;;;;22.10;11.38;;;;;;;;;;8394924;28;20045;-86
2023/04/17 06:34:47;;;;;;;22.05;12.30;;;;;;;;;;8394161;28;20048;-86
2023/04/17 06:38:50;;;;;;;16.65;9.85;;;;;;;;;;8392568;28;20051;-88
2023/04/17 06:42:53;;;;;;;12.88;8.75;;;;;;;;;;8392577;28;20037;-85
2023/04/17 06:46:57;;;;;;;12.20;7.90;;;;;;;;;;8386528;28;20097;-88
2023/04/17 06:51:01;;;;;;;12.18;8.90;;;;;;;;;;8381565;28;20053;-89
2023/04/17 06:55:05;;;;;;;14.15;10.35;;;;;;;;;;8395813;28;20052;-89
2023/04/17 06:59:07;;;;;;;15.48;11.77;;;;;;;;;;8393486;28;20575;-90
2023/04/17 07:03:12;;;;;;;13.95;10.10;;;;;;;;;;8393810;28;20041;-91
2023/04/17 07:07:17;;;;;;;13.05;9.75;;;;;;;;;;8384790;28;20044;-91
2023/04/17 07:11:19;;;;;;;14.63;9.68;;;;;;;;;;8397277;28;20056;-87
2023/04/17 07:15:22;;;;;;;13.85;9.52;;;;;;;;;;8391952;28;20123;-89
2023/04/17 07:19:25;;;;;;;13.18;9.15;;;;;;;;;;8394122;28;20121;-87
2023/04/17 07:23:30;;;;;;;13.68;9.20;;;;;;;;;;8396900;28;20040;-88
2023/04/17 07:27:33;;;;;;;13.02;8.85;;;;;;;;;;8386601;28;20036;-88
2023/04/17 07:31:36;;;;;;;14.40;8.60;;;;;;;;;;8399139;28;20061;-88
2023/04/17 07:35:39;;;;;;;13.57;8.25;;;;;;;;;;8387623;28;20124;-89
2023/04/17 07:39:44;;;;;;;13.77;8.93;;;;;;;;;;8395066;28;20480;-89
2023/04/17 07:43:46;;;;;;;14.70;10.07;;;;;;;;;;8396602;28;20040;-89
2023/04/17 07:47:51;;;;;;;23.38;14.30;;;;;;;;;;8399752;28;20131;-89
2023/04/17 07:51:55;;;;;;;18.55;11.40;;;;;;;;;;8396815;28;20046;-90
2023/04/17 07:55:59;;;;;;;18.70;9.95;;;;;;;;;;8399946;28;20064;-90
2023/04/17 08:00:06;;;;;;;25.38;14.23;;;;;;;;;;8381466;28;20140;-89
2023/04/17 08:04:08;;;;;;;25.52;15.85;;;;;;;;;;8386002;28;20622;-91
2023/04/17 08:08:12;;;;;;;27.92;14.63;;;;;;;;;;8399396;28;20075;-91
2023/04/17 08:12:16;;;;;;;23.80;13.32;;;;;;;;;;8399376;28;20055;-91
2023/04/17 08:16:19;;;;;;;26.08;14.73;;;;;;;;;;8399657;28;20048;-88
2023/04/17 08:20:22;;;;;;;18.10;10.32;;;;;;;;;;8398450;28;20475;-88
2023/04/17 08:24:25;;;;;;;32.05;18.45;;;;;;;;;;8399009;28;20052;-88
2023/04/17 08:28:29;;;;;;;26.48;14.88;;;;;;;;;;8384989;28;20154;-90
2023/04/17 08:32:38;;;;;;;38.53;18.42;;;;;;;;;;8397118;28;20053;-86
2023/04/17 08:36:41;;;;;;;28.13;14.25;;;;;;;;;;8393503;28;20044;-86
2023/04/17 08:40:45;;;;;;;28.98;15.80;;;;;;;;;;8393999;28;20094;-86
2023/04/17 08:44:50;;;;;;;24.17;12.80;;;;;;;;;;8392660;28;20124;-86
2023/04/17 08:48:53;;;;;;;27.85;15.00;;;;;;;;;;8377570;28;20404;-86
2023/04/17 08:52:55;;;;;;;26.23;14.00;;;;;;;;;;8391950;28;20051;-86
2023/04/17 08:57:02;;;;;;;25.67;14.13;;;;;;;;;;8395935;28;20445;-85
2023/04/17 09:01:10;;;;;;;23.45;12.48;;;;;;;;;;8389618;28;20387;-86
2023/04/17 09:05:20;;;;;;;25.45;13.48;;;;;;;;;;8388523;28;20040;-85
2023/04/17 09:09:24;;;;;;;26.90;15.82;;;;;;;;;;8388835;28;20047;-86
2023/04/17 09:13:28;;;;;;;27.50;14.35;;;;;;;;;;8387695;28;20110;-85
2023/04/17 09:17:36;;;;;;;40.38;19.83;;;;;;;;;;8391873;28;20048;-86
2023/04/17 09:21:39;;;;;;;28.25;13.13;;;;;;;;;;8403143;28;20043;-86
2023/04/17 09:25:43;;;;;;;24.77;13.07;;;;;;;;;;8391393;28;20131;-87
2023/04/17 09:29:56;;;;;;;30.50;16.33;;;;;;;;;;8395706;28;20385;-89
2023/04/17 09:34:03;;;;;;;25.23;14.80;;;;;;;;;;8396509;28;20052;-88
2023/04/17 09:38:06;;;;;;;22.30;12.13;;;;;;;;;;8396386;28;20131;-89
2023/04/17 09:42:09;;;;;;;21.30;11.68;;;;;;;;;;8395110;28;20106;-88
2023/04/17 09:46:13;;;;;;;19.55;10.75;;;;;;;;;;8394104;28;20048;-89
2023/04/17 09:50:20;;;;;;;15.40;8.85;;;;;;;;;;8395577;28;20047;-89
2023/04/17 09:54:23;;;;;;;16.40;9.63;;;;;;;;;;8378144;28;20125;-89
2023/04/17 09:58:26;;;;;;;14.73;7.55;;;;;;;;;;8396020;28;20093;-88
2023/04/17 10:02:29;;;;;;;14.27;8.60;;;;;;;;;;8395159;28;20044;-90
2023/04/17 10:06:35;;;;;;;16.00;8.10;;;;;;;;;;8381125;28;20669;-87
2023/04/17 10:10:38;;;;;;;18.05;11.65;;;;;;;;;;8382764;28;20048;-89
2023/04/17 10:14:45;;;;;;;15.25;8.13;;;;;;;;;;8395646;28;20044;-87
2023/04/17 10:19:28;;;;;;;15.93;9.30;;;;;;;;;;8382039;28;20095;-87
2023/04/17 10:23:34;;;;;;;12.70;7.97;;;;;;;;;;8394658;28;20132;-87
2023/04/17 10:27:44;;;;;;;11.98;6.65;;;;;;;;;;8394136;28;20556;-87
2023/04/17 10:32:22;;;;;;;12.88;7.68;;;;;;;;;;8395094;28;20056;-86
2023/04/17 10:36:49;;;;;;;11.85;7.35;;;;;;;;;;8243640;28;20046;-86
2023/04/17 10:40:54;;;;;;;10.82;7.55;;;;;;;;;;8259082;28;20078;-87
2023/04/17 10:45:00;;;;;;;10.43;6.50;;;;;;;;;;8259105;28;20457;-86
2023/04/17 10:49:04;;;;;;;10.55;6.10;;;;;;;;;;8253626;28;20760;-86
2023/04/17 10:53:07;;;;;;;22.33;12.80;;;;;;;;;;8244055;28;20059;-86
2023/04/17 10:57:12;;;;;;;17.05;9.93;;;;;;;;;;8249602;28;20054;-87
2023/04/17 11:01:15;;;;;;;11.85;7.63;;;;;;;;;;8243179;28;20169;-86
2023/04/17 11:05:18;;;;;;;13.10;8.20;;;;;;;;;;8272343;28;20079;-86
2023/04/17 11:09:22;;;;;;;15.05;9.63;;;;;;;;;;8395515;28;20056;-85
2023/04/17 11:13:31;;;;;;;16.23;9.38;;;;;;;;;;8399311;28;20075;-85
2023/04/17 11:17:34;;;;;;;13.73;8.52;;;;;;;;;;8394094;28;20041;-87
2023/04/17 11:21:39;;;;;;;24.00;14.10;;;;;;;;;;8393035;28;20060;-86
2023/04/17 11:25:42;;;;;;;21.23;11.27;;;;;;;;;;8379474;28;20119;-85
2023/04/17 11:29:46;;;;;;;17.05;11.10;;;;;;;;;;8381421;28;20114;-86
2023/04/17 11:33:49;;;;;;;16.08;10.07;;;;;;;;;;8394634;28;20106;-86
2023/04/17 11:38:16;;;;;;;16.77;9.82;;;;;;;;;;8399308;28;20048;-86
2023/04/17 11:42:26;;;;;;;15.55;9.10;;;;;;;;;;8398675;28;20492;-86
2023/04/17 11:46:31;;;;;;;15.43;8.88;;;;;;;;;;8398508;28;20469;-87
2023/04/17 11:50:35;;;;;;;15.05;9.40;;;;;;;;;;8398212;28;20072;-86
2023/04/17 11:54:40;;;;;;;20.33;10.60;;;;;;;;;;8388301;28;20065;-86
2023/04/17 11:58:47;;;;;;;20.83;11.45;;;;;;;;;;8395546;28;20247;-86
2023/04/17 12:02:52;;;;;;;23.10;12.70;;;;;;;;;;8390728;28;20049;-87
2023/04/17 12:06:55;;;;;;;21.95;12.57;;;;;;;;;;8396439;28;21614;-87
2023/04/17 12:10:59;;;;;;;21.10;12.20;;;;;;;;;;8395869;28;20056;-86
2023/04/17 12:15:02;;;;;;;22.52;12.13;;;;;;;;;;8398152;28;20048;-86
2023/04/17 12:19:08;;;;;;;19.88;11.77;;;;;;;;;;8394619;28;20060;-89
2023/04/17 12:23:11;;;;;;;17.52;10.40;;;;;;;;;;8396875;28;20559;-91
2023/04/17 12:27:14;;;;;;;14.60;9.05;;;;;;;;;;8393716;28;20071;-90
2023/04/17 12:31:17;;;;;;;17.20;10.07;;;;;;;;;;8406267;28;20063;-94
2023/04/17 12:35:24;;;;;;;16.45;9.23;;;;;;;;;;8407971;28;20171;-95
2023/04/17 12:39:32;;;;;;;19.52;9.80;;;;;;;;;;8388250;28;20052;-88
2023/04/17 12:43:36;;;;;;;16.42;9.43;;;;;;;;;;8405329;28;20044;-93
2023/04/17 12:47:41;;;;;;;18.60;9.70;;;;;;;;;;8410914;28;20075;-94
2023/04/17 12:51:51;;;;;;;20.45;11.60;;;;;;;;;;8413023;28;20056;-93
2023/04/17 12:55:55;;;;;;;15.05;8.60;;;;;;;;;;8384782;28;20048;-93
2023/04/17 12:59:58;;;;;;;14.15;6.65;;;;;;;;;;8374294;28;20128;-95
2023/04/17 13:04:01;;;;;;;11.20;6.70;;;;;;;;;;8397398;28;20577;-94
2023/04/17 13:08:11;;;;;;;12.00;7.63;;;;;;;;;;8397476;28;20044;-89
2023/04/17 13:12:16;;;;;;;11.45;7.10;;;;;;;;;;8393052;28;20046;-93
2023/04/17 13:16:19;;;;;;;13.98;8.48;;;;;;;;;;8398068;28;20446;-91
2023/04/17 13:20:22;;;;;;;13.93;6.75;;;;;;;;;;8391215;28;20123;-91
2023/04/17 13:24:26;;;;;;;6.82;3.92;;;;;;;;;;8385698;28;20391;-89
2023/04/17 13:28:29;;;;;;;10.75;5.70;;;;;;;;;;8396218;28;20058;-87
2023/04/17 13:32:33;;;;;;;13.23;5.97;;;;;;;;;;8397441;28;20052;-90
2023/04/17 13:36:38;;;;;;;10.02;5.60;;;;;;;;;;8393615;28;20091;-87
2023/04/17 13:40:42;;;;;;;10.35;5.97;;;;;;;;;;8375330;28;20049;-88
2023/04/17 13:44:48;;;;;;;8.77;5.78;;;;;;;;;;8390744;28;20067;-88
2023/04/17 13:48:54;;;;;;;12.77;7.68;;;;;;;;;;8376084;28;20049;-88
2023/04/17 13:52:57;;;;;;;18.88;10.40;;;;;;;;;;8394038;28;20048;-90
2023/04/17 13:57:01;;;;;;;11.02;5.60;;;;;;;;;;8395193;28;20551;-90
2023/04/17 14:01:05;;;;;;;10.43;5.78;;;;;;;;;;8378893;28;20144;-86
2023/04/17 14:05:12;;;;;;;10.10;5.45;;;;;;;;;;8378055;28;20094;-87
2023/04/17 14:09:15;;;;;;;15.25;8.35;;;;;;;;;;8372669;28;20068;-86
2023/04/17 14:13:22;;;;;;;10.07;6.28;;;;;;;;;;8384760;28;20139;-87
2023/04/17 14:17:28;;;;;;;23.85;10.50;;;;;;;;;;8392778;28;20079;-90
2023/04/17 14:21:32;;;;;;;17.90;9.00;;;;;;;;;;8368446;28;20056;-87
2023/04/17 14:25:36;;;;;;;21.75;10.18;;;;;;;;;;8378048;28;20060;-89
2023/04/17 14:29:40;;;;;;;17.77;8.05;;;;;;;;;;8396195;28;20051;-90
2023/04/17 14:33:43;;;;;;;18.63;9.07;;;;;;;;;;8381986;28;20488;-87
2023/04/17 14:37:47;;;;;;;22.10;10.50;;;;;;;;;;8396216;28;20066;-88
2023/04/17 14:41:51;;;;;;;17.45;8.93;;;;;;;;;;8382871;28;20040;-87
2023/04/17 14:45:57;;;;;;;17.20;8.68;;;;;;;;;;8388143;28;20488;-92
2023/04/17 15:17:03;;;;;;;13.70;7.30;;;;;;;;;;8122217;29;20067;-88
2023/04/17 15:21:06;;;;;;;50.63;23.13;;;;;;;;;;8156030;29;20155;-89
2023/04/17 15:25:10;;;;;;;16.60;9.10;;;;;;;;;;8143035;29;20476;-89
2023/04/17 15:29:15;;;;;;;16.30;8.57;;;;;;;;;;8242767;28;20138;-87
2023/04/17 15:33:32;;;;;;;42.10;21.25;;;;;;;;;;8298639;28;20140;-89
2023/04/17 15:49:00;;;;;;;15.98;7.20;;;;;;;;;;8443920;22;20056;-87
2023/04/17 15:53:04;;;;;;;31.75;13.60;;;;;;;;;;8415722;28;20052;-89
2023/04/17 16:02:41;;;;;;;13.82;6.43;;;;;;;;;;8514333;22;20054;-88
2023/04/17 16:06:48;;;;;;;49.22;23.42;;;;;;;;;;8458885;28;20055;-88
2023/04/17 16:10:53;;;;;;;38.25;16.27;;;;;;;;;;8461273;28;20048;-89
2023/04/17 16:19:57;;;;;;;88.88;36.63;;;;;;;;;;8387978;22;20111;-88
2023/04/17 16:35:28;;;;;;;12.98;7.00;;;;;;;;;;8223202;28;20143;-89
2023/04/17 16:44:57;;;;;;;17.50;9.65;;;;;;;;;;8221284;28;20066;-89
2023/04/17 16:58:46;;;;;;;40.92;17.50;;;;;;;;;;8530360;22;20048;-88
2023/04/17 17:44:13;;;;;;;31.38;12.27;;;;;;;;;;8692276;22;20064;-93
2023/04/17 18:03:34;;;;;;;53.47;23.02;;;;;;;;;;8389922;28;20048;-92
2023/04/17 19:28:03;;;;;;;12.82;6.22;;;;;;;;;;8307143;28;20188;-87
2023/04/17 19:32:07;;;;;;;18.10;8.52;;;;;;;;;;8340799;28;20065;-88
2023/04/17 19:36:14;;;;;;;21.40;10.35;;;;;;;;;;8330094;28;20093;-88
2023/04/17 19:40:25;;;;;;;25.67;11.48;;;;;;;;;;8301183;28;20050;-86
2023/04/17 19:44:33;;;;;;;26.33;13.35;;;;;;;;;;8319230;28;20090;-87
2023/04/17 19:48:42;;;;;;;14.02;7.80;;;;;;;;;;8307795;28;20069;-86
2023/04/17 19:52:50;;;;;;;15.98;8.38;;;;;;;;;;8301881;28;20452;-87
2023/04/17 19:56:54;;;;;;;12.68;7.10;;;;;;;;;;8279687;28;20057;-86
2023/04/17 20:01:05;;;;;;;13.65;6.97;;;;;;;;;;8284172;28;20500;-87
2023/04/17 20:05:11;;;;;;;20.75;10.20;;;;;;;;;;8296552;28;20092;-87
2023/04/17 20:09:15;;;;;;;14.13;8.18;;;;;;;;;;8291255;28;20061;-89
2023/04/17 20:13:22;;;;;;;18.67;8.43;;;;;;;;;;8302962;28;20058;-88
2023/04/17 20:17:33;;;;;;;13.38;7.32;;;;;;;;;;8312252;28;20061;-88
2023/04/17 20:21:38;;;;;;;12.52;6.32;;;;;;;;;;8290790;28;20089;-87
2023/04/17 20:25:44;;;;;;;13.52;7.43;;;;;;;;;;8304822;28;20045;-88
2023/04/17 20:29:48;;;;;;;8.77;4.88;;;;;;;;;;8301903;28;20079;-88
2023/04/17 20:33:53;;;;;;;12.45;7.07;;;;;;;;;;8316003;28;20057;-87
2023/04/17 20:37:59;;;;;;;15.00;7.18;;;;;;;;;;8308719;28;20065;-89
2023/04/17 20:42:05;;;;;;;11.15;6.22;;;;;;;;;;8304635;28;20060;-90
2023/04/17 20:46:10;;;;;;;16.83;7.93;;;;;;;;;;8323852;28;20057;-90
2023/04/17 20:50:18;;;;;;;17.98;7.88;;;;;;;;;;8276265;28;20066;-89
2023/04/17 20:54:25;;;;;;;12.85;6.13;;;;;;;;;;8291497;28;20065;-88
2023/04/17 20:58:28;;;;;;;29.17;10.38;;;;;;;;;;8301545;28;20066;-87
2023/04/17 21:02:34;;;;;;;16.63;7.22;;;;;;;;;;8311882;28;20077;-88
2023/04/17 21:06:41;;;;;;;11.82;6.05;;;;;;;;;;8272634;28;20058;-87
2023/04/17 21:10:50;;;;;;;10.18;5.57;;;;;;;;;;8285146;28;20080;-87
2023/04/17 21:14:55;;;;;;;7.10;3.65;;;;;;;;;;8283922;28;20062;-87
2023/04/17 21:19:01;;;;;;;8.77;4.30;;;;;;;;;;8306238;28;20060;-86
2023/04/17 21:23:06;;;;;;;10.15;5.57;;;;;;;;;;8304754;28;20076;-89
2023/04/17 21:27:10;;;;;;;11.35;6.60;;;;;;;;;;8294126;28;20062;-85
2023/04/17 21:31:14;;;;;;;13.32;6.85;;;;;;;;;;8285398;28;20494;-86
2023/04/17 21:35:20;;;;;;;9.82;5.03;;;;;;;;;;8282584;28;20060;-88
2023/04/17 21:39:25;;;;;;;14.38;6.82;;;;;;;;;;8290442;28;20057;-86
2023/04/17 21:43:31;;;;;;;11.73;6.20;;;;;;;;;;8277603;28;20061;-88
2023/04/17 21:47:34;;;;;;;8.25;4.55;;;;;;;;;;8262786;28;20069;-86
2023/04/17 21:51:37;;;;;;;8.57;5.63;;;;;;;;;;8295964;28;20146;-87
2023/04/17 21:55:44;;;;;;;10.43;5.57;;;;;;;;;;8288628;28;20482;-87
2023/04/17 21:59:50;;;;;;;9.50;4.70;;;;;;;;;;8292775;28;20073;-88
2023/04/17 22:03:56;;;;;;;12.27;5.75;;;;;;;;;;8281918;28;20058;-87
2023/04/17 22:08:02;;;;;;;9.90;5.32;;;;;;;;;;8296144;28;20172;-86
2023/04/17 22:12:12;;;;;;;14.60;6.65;;;;;;;;;;8311071;28;20586;-86
2023/04/17 22:16:16;;;;;;;10.93;6.47;;;;;;;;;;8285492;28;20194;-87
2023/04/17 22:20:19;;;;;;;7.18;3.85;;;;;;;;;;8303097;28;20061;-85
2023/04/17 22:25:00;;;;;;;9.52;5.50;;;;;;;;;;8292802;28;20131;-87
2023/04/17 22:43:38;;;;;;;8.82;5.10;;;;;;;;;;8289159;28;20060;-86
